Skip Navigation LinksHome page > Weather > Current weather Skip Navigation Links

Current Weather

Sarh, Chad

For information only: do not use for flight planning or navigation.
Latest weather
Observation time Friday, January 30, 2015 5:00 AM WAT
Local time Friday, January 30, 2015 5:47 AM WAT
Flight conditions Conditions unknown
Winds
Wind direction Northwest (320°)
Wind speed 2 mph
Sky condition
Ceiling unlimited
Temperature 72°F
Dewpoint 34°F
Altimeter 29.88 in.Hg
Derived measurements
Relative humidity 25%
Density altitude 1324 ft.
METAR FTTA 300400Z 32002KT CAV0K 22/01 Q1012

Settings

Location code

InnerDrive.Weather 4.0.5505.0 Release CLR 4.0.30319.34014
Copyright ©2015 Inner Drive Technology. All rights reserved. Portions Copyright ©1986-2015 David Braverman.

Find weather

Site navigation


Skip Navigation Links

Place info

Page info

PayPal - The safer, easier way to pay online!

Return home.

Copyright ©2015 Inner Drive Technology. Purveyors of fine, hand-crafted computer software. Page printed 2015-01-30T04:47:48 UTC.